createdAt,value
2019-05-03T00:00:47.351Z,0
2019-05-03T00:02:01.832Z,0
2019-05-03T00:03:12.033Z,0
2019-05-03T00:04:22.429Z,0
2019-05-03T00:05:32.587Z,0
2019-05-03T00:06:42.716Z,0
2019-05-03T00:07:52.704Z,0
2019-05-03T00:09:04.013Z,0
2019-05-03T00:10:15.292Z,0
2019-05-03T00:11:26.827Z,0
2019-05-03T00:12:37.552Z,0
2019-05-03T00:13:49.698Z,0
2019-05-03T00:15:00.144Z,0
2019-05-03T00:16:12.083Z,0
2019-05-03T00:17:21.967Z,0
2019-05-03T00:18:32.723Z,0
2019-05-03T00:19:44.697Z,0
2019-05-03T00:20:55.164Z,0
2019-05-03T00:22:06.822Z,0
2019-05-03T00:23:16.942Z,0
2019-05-03T00:24:27.480Z,0
2019-05-03T00:25:41.480Z,0
2019-05-03T00:26:51.718Z,0
2019-05-03T00:28:01.917Z,0
2019-05-03T00:29:12.711Z,0
2019-05-03T00:30:24.925Z,0
2019-05-03T00:31:36.614Z,0
2019-05-03T00:32:47.343Z,0
2019-05-03T00:33:58.615Z,0
2019-05-03T00:35:11.909Z,0
2019-05-03T00:36:22.453Z,0
2019-05-03T00:37:32.786Z,0
2019-05-03T00:38:44.367Z,0
2019-05-03T00:39:54.774Z,0
2019-05-03T00:41:06.598Z,0
2019-05-03T00:42:16.513Z,0
2019-05-03T00:43:27.087Z,0
2019-05-03T00:44:38.905Z,0
2019-05-03T00:45:51.550Z,0
2019-05-03T00:47:02.268Z,0
2019-05-03T00:48:12.438Z,0
2019-05-03T00:49:22.602Z,0
2019-05-03T00:50:34.534Z,0
2019-05-03T00:51:44.607Z,0
2019-05-03T00:52:56.302Z,0
2019-05-03T00:54:06.929Z,0
2019-05-03T00:55:24.524Z,0
2019-05-03T00:56:34.612Z,0
2019-05-03T00:57:46.322Z,0
2019-05-03T00:58:57.805Z,0
2019-05-03T01:00:09.735Z,0
2019-05-03T01:01:20.062Z,0
2019-05-03T01:02:31.793Z,0
2019-05-03T01:03:41.937Z,0
2019-05-03T01:04:51.949Z,0
2019-05-03T01:06:02.248Z,0
2019-05-03T01:07:14.074Z,0
2019-05-03T01:08:24.516Z,0
2019-05-03T01:09:36.486Z,0
2019-05-03T01:10:46.951Z,0
2019-05-03T01:11:57.272Z,0
2019-05-03T01:13:08.800Z,0
2019-05-03T01:14:20.023Z,0
2019-05-03T01:15:31.946Z,0
2019-05-03T01:16:42.675Z,0
2019-05-03T01:17:52.607Z,0
2019-05-03T01:19:02.721Z,0
2019-05-03T01:20:14.392Z,0
2019-05-03T01:21:24.851Z,0
2019-05-03T01:22:36.899Z,0
2019-05-03T01:23:48.847Z,0
2019-05-03T01:25:00.204Z,0
2019-05-03T01:26:11.834Z,0
2019-05-03T01:27:22.057Z,0
2019-05-03T01:28:32.295Z,0
2019-05-03T01:29:42.501Z,0
2019-05-03T01:30:54.298Z,0
2019-05-03T01:32:04.789Z,0
2019-05-03T01:33:16.638Z,0
2019-05-03T01:34:26.797Z,0
2019-05-03T01:35:37.136Z,0
2019-05-03T01:36:47.531Z,0
2019-05-03T01:37:59.241Z,0
2019-05-03T01:39:10.270Z,0
2019-05-03T01:40:21.964Z,0
2019-05-03T01:41:32.386Z,0
2019-05-03T01:42:42.687Z,0
2019-05-03T01:43:52.565Z,0
2019-05-03T01:45:04.291Z,0
2019-05-03T01:46:14.195Z,0
2019-05-03T01:47:24.354Z,0
2019-05-03T01:48:34.637Z,0
2019-05-03T01:49:45.069Z,0
2019-05-03T01:50:56.649Z,0
2019-05-03T01:52:06.837Z,0
2019-05-03T01:53:17.315Z,0
2019-05-03T01:54:32.001Z,0
2019-05-03T01:55:52.233Z,0
2019-05-03T01:57:07.008Z,0
2019-05-03T01:58:17.309Z,0
2019-05-03T01:59:27.268Z,0
2019-05-03T02:00:39.017Z,0
2019-05-03T02:01:51.607Z,0
2019-05-03T02:03:01.682Z,0
2019-05-03T02:04:12.204Z,0
2019-05-03T02:05:22.553Z,0
2019-05-03T02:06:34.220Z,0
2019-05-03T02:07:44.709Z,0
2019-05-03T02:08:56.741Z,0
2019-05-03T02:10:07.629Z,0
2019-05-03T02:11:19.481Z,0
2019-05-03T02:12:29.866Z,0
2019-05-03T02:13:39.839Z,0
2019-05-03T02:14:51.647Z,0
2019-05-03T02:16:02.254Z,0
2019-05-03T02:17:12.520Z,0
2019-05-03T02:18:22.448Z,0
2019-05-03T02:19:32.698Z,0
2019-05-03T02:20:44.233Z,0
2019-05-03T02:21:54.790Z,0
2019-05-03T02:23:05.281Z,0
2019-05-03T02:24:16.642Z,0
2019-05-03T02:25:26.668Z,0
2019-05-03T02:26:36.143Z,0
2019-05-03T02:27:47.163Z,0
2019-05-03T02:28:57.379Z,0
2019-05-03T02:30:13.640Z,0
2019-05-03T02:31:25.705Z,0
2019-05-03T02:32:37.707Z,0
2019-05-03T02:33:53.105Z,0
2019-05-03T02:35:05.231Z,0
2019-05-03T02:36:18.307Z,0
2019-05-03T02:37:32.983Z,0
2019-05-03T02:38:45.528Z,0
2019-05-03T02:39:57.667Z,0
2019-05-03T02:41:09.767Z,0
2019-05-03T02:42:22.848Z,0
2019-05-03T02:43:36.352Z,0
2019-05-03T02:44:48.658Z,0
2019-05-03T02:46:01.475Z,0
2019-05-03T02:47:12.804Z,0
2019-05-03T02:48:25.456Z,0
2019-05-03T02:49:37.776Z,0
2019-05-03T02:50:50.028Z,0
2019-05-03T02:52:02.681Z,0
2019-05-03T02:53:15.671Z,0
2019-05-03T02:54:29.223Z,0
2019-05-03T02:55:40.968Z,0
2019-05-03T02:56:55.746Z,0
2019-05-03T02:58:08.211Z,0
2019-05-03T02:59:20.721Z,0
2019-05-03T03:00:36.126Z,0
2019-05-03T03:01:48.876Z,4
2019-05-03T03:03:00.309Z,4
2019-05-03T03:04:15.559Z,0
2019-05-03T03:05:27.759Z,4
2019-05-03T03:06:39.262Z,4
2019-05-03T03:07:50.655Z,4
2019-05-03T03:09:05.402Z,8
2019-05-03T03:10:18.626Z,8
2019-05-03T03:11:30.951Z,8
2019-05-03T03:12:46.208Z,8
2019-05-03T03:13:57.687Z,12
2019-05-03T03:15:10.835Z,16
2019-05-03T03:16:29.968Z,16
2019-05-03T03:17:45.550Z,20
2019-05-03T03:18:58.242Z,20
2019-05-03T03:20:10.334Z,24
2019-05-03T03:21:25.827Z,32
2019-05-03T03:22:38.684Z,36
2019-05-03T03:23:50.935Z,44
2019-05-03T03:25:05.379Z,52
2019-05-03T03:26:33.230Z,60
2019-05-03T03:27:52.527Z,76
2019-05-03T03:29:05.578Z,92
2019-05-03T03:30:19.592Z,104
2019-05-03T03:31:37.431Z,124
2019-05-03T03:32:57.489Z,140
2019-05-03T03:34:12.703Z,160
2019-05-03T03:35:37.584Z,180
2019-05-03T03:37:15.547Z,208
2019-05-03T03:38:28.498Z,228
2019-05-03T03:39:41.064Z,252
2019-05-03T03:40:56.335Z,280
2019-05-03T03:42:10.169Z,312
2019-05-03T03:43:22.869Z,344
2019-05-03T03:44:36.003Z,380
2019-05-03T03:45:48.028Z,408
2019-05-03T03:47:00.815Z,432
2019-05-03T03:48:15.574Z,472
2019-05-03T03:49:26.148Z,524
2019-05-03T03:50:38.416Z,564
2019-05-03T03:51:50.393Z,588
2019-05-03T03:53:02.873Z,612
2019-05-03T03:54:15.462Z,636
2019-05-03T03:55:26.328Z,668
2019-05-03T03:56:59.093Z,708
2019-05-03T03:58:26.947Z,764
2019-05-03T03:59:38.882Z,812
2019-05-03T04:00:51.244Z,852
2019-05-03T04:02:05.692Z,900
2019-05-03T04:03:18.312Z,964
2019-05-03T04:04:30.762Z,1020
2019-05-03T04:05:46.467Z,1092
2019-05-03T04:07:03.009Z,1180
2019-05-03T04:08:16.107Z,1264
2019-05-03T04:09:28.072Z,1352
2019-05-03T04:10:40.140Z,1444
2019-05-03T04:11:51.192Z,1544
2019-05-03T04:13:05.421Z,1648
2019-05-03T04:14:18.284Z,1764
2019-05-03T04:15:30.775Z,1876
2019-05-03T04:16:45.408Z,1992
2019-05-03T04:17:58.884Z,2092
2019-05-03T04:19:10.658Z,2180
2019-05-03T04:20:25.606Z,2268
2019-05-03T04:21:38.296Z,2360
2019-05-03T04:22:50.137Z,2444
2019-05-03T04:24:02.550Z,2528
2019-05-03T04:25:15.290Z,2612
2019-05-03T04:26:31.422Z,2712
2019-05-03T04:27:45.529Z,2804
2019-05-03T04:28:58.451Z,2908
2019-05-03T04:30:10.535Z,3008
2019-05-03T04:31:22.532Z,3116
2019-05-03T04:32:38.439Z,3232
2019-05-03T04:33:49.485Z,3348
2019-05-03T04:35:00.682Z,3456
2019-05-03T04:36:15.743Z,3552
2019-05-03T04:37:28.909Z,3636
2019-05-03T04:38:40.212Z,3716
2019-05-03T04:39:55.483Z,3820
2019-05-03T04:41:08.462Z,3916
2019-05-03T04:42:21.361Z,4012
2019-05-03T04:43:35.593Z,4076
2019-05-03T04:44:48.199Z,4164
2019-05-03T04:46:00.561Z,4208
2019-05-03T04:47:15.601Z,4224
2019-05-03T04:48:27.760Z,4228
2019-05-03T04:49:38.702Z,4232
2019-05-03T04:50:50.602Z,4224
2019-05-03T04:52:05.749Z,4236
2019-05-03T04:53:18.510Z,4276
2019-05-03T04:54:30.174Z,4360
2019-05-03T04:55:43.475Z,4500
2019-05-03T04:56:56.076Z,4604
2019-05-03T04:58:07.269Z,4676
2019-05-03T04:59:18.475Z,4748
2019-05-03T05:00:30.703Z,4832
2019-05-03T05:01:45.850Z,4952
2019-05-03T05:02:57.684Z,5088
2019-05-03T05:04:10.094Z,5184
2019-05-03T05:05:22.584Z,5256
2019-05-03T05:06:35.001Z,5300
2019-05-03T05:07:45.579Z,5288
2019-05-03T05:08:57.373Z,5288
2019-05-03T05:10:09.902Z,5344
2019-05-03T05:11:22.603Z,5340
2019-05-03T05:12:35.536Z,5300
2019-05-03T05:13:48.080Z,5204
2019-05-03T05:15:01.139Z,5152
2019-05-03T05:16:15.809Z,5088
2019-05-03T05:17:28.648Z,5008
2019-05-03T05:18:40.300Z,4896
2019-05-03T05:19:51.542Z,4784
2019-05-03T05:21:04.450Z,4688
2019-05-03T05:22:15.489Z,4636
2019-05-03T05:23:27.487Z,4616
2019-05-03T05:24:39.411Z,4620
2019-05-03T05:25:49.453Z,4632
2019-05-03T05:26:59.847Z,4648
2019-05-03T05:28:11.602Z,4660
2019-05-03T05:29:22.396Z,4652
2019-05-03T05:30:35.161Z,4652
2019-05-03T05:31:47.042Z,4684
2019-05-03T05:32:57.743Z,4744
2019-05-03T05:34:10.904Z,4812
2019-05-03T05:35:24.410Z,4876
2019-05-03T05:36:34.842Z,4884
2019-05-03T05:37:44.359Z,4968
2019-05-03T05:38:55.202Z,5092
2019-05-03T05:40:05.323Z,5192
2019-05-03T05:41:15.668Z,5224
2019-05-03T05:42:27.420Z,5236
2019-05-03T05:43:38.172Z,5248
2019-05-03T05:44:50.126Z,5260
2019-05-03T05:46:05.206Z,5276
2019-05-03T05:47:15.071Z,5300
2019-05-03T05:48:26.707Z,5316
2019-05-03T05:49:37.543Z,5324
2019-05-03T05:50:49.638Z,5328
2019-05-03T05:52:01.740Z,5336
2019-05-03T05:53:12.616Z,5344
2019-05-03T05:54:24.557Z,5348
2019-05-03T05:55:36.592Z,5360
2019-05-03T05:56:46.980Z,5380
2019-05-03T05:58:13.047Z,5384
2019-05-03T05:59:24.764Z,5240
2019-05-03T06:00:35.893Z,5360
2019-05-03T06:01:48.038Z,5360
2019-05-03T06:02:59.942Z,5168
2019-05-03T06:04:12.383Z,5328
2019-05-03T06:05:25.033Z,5312
2019-05-03T06:06:37.200Z,5292
2019-05-03T06:07:49.100Z,5300
2019-05-03T06:08:59.571Z,5148
2019-05-03T06:10:10.104Z,5284
2019-05-03T06:11:25.707Z,5352
2019-05-03T06:12:37.636Z,5412
2019-05-03T06:13:49.284Z,5464
2019-05-03T06:14:59.280Z,5476
2019-05-03T06:16:09.955Z,5476
2019-05-03T06:17:21.743Z,5488
2019-05-03T06:18:32.349Z,5448
2019-05-03T06:19:44.767Z,5624
2019-05-03T06:20:56.761Z,5552
2019-05-03T06:22:07.294Z,5600
2019-05-03T06:23:18.946Z,5604
2019-05-03T06:24:29.789Z,5644
2019-05-03T06:25:40.240Z,5764
2019-05-03T06:26:51.579Z,5912
2019-05-03T06:28:14.254Z,5848
2019-05-03T06:29:29.649Z,6328
2019-05-03T06:30:39.934Z,6756
2019-05-03T06:31:52.124Z,7088
2019-05-03T06:33:02.715Z,7620
2019-05-03T06:34:14.813Z,8044
2019-05-03T06:35:24.428Z,8140
2019-05-03T06:36:35.377Z,8372
2019-05-03T06:37:45.833Z,8468
2019-05-03T06:38:57.205Z,8688
2019-05-03T06:40:10.670Z,8136
2019-05-03T06:41:24.921Z,9628
2019-05-03T06:42:35.512Z,8392
2019-05-03T06:43:59.856Z,9028
2019-05-03T06:45:19.922Z,9516
2019-05-03T06:46:37.726Z,8896
2019-05-03T06:47:55.129Z,10448
2019-05-03T06:49:15.104Z,9188
2019-05-03T06:50:31.990Z,9228
2019-05-03T06:51:50.202Z,10476
2019-05-03T06:53:12.702Z,10576
2019-05-03T06:54:34.352Z,11716
2019-05-03T06:55:52.003Z,12716
2019-05-03T06:57:14.753Z,11512
2019-05-03T06:58:41.095Z,11344
2019-05-03T06:59:52.541Z,9808
2019-05-03T07:01:04.422Z,10184
2019-05-03T07:02:14.822Z,10996
2019-05-03T07:03:25.216Z,10304
2019-05-03T07:04:37.100Z,10084
2019-05-03T07:05:47.449Z,9084
2019-05-03T07:06:57.561Z,9764
2019-05-03T07:08:09.292Z,9352
2019-05-03T07:09:19.041Z,8324
2019-05-03T07:10:29.764Z,9740
2019-05-03T07:11:41.754Z,8864
2019-05-03T07:12:54.647Z,9560
2019-05-03T07:14:05.231Z,9076
2019-05-03T07:15:16.912Z,9212
2019-05-03T07:16:27.796Z,9228
2019-05-03T07:17:39.777Z,10488
2019-05-03T07:18:50.344Z,9208
2019-05-03T07:20:04.632Z,10112
2019-05-03T07:21:15.219Z,10256
2019-05-03T07:22:26.833Z,10420
2019-05-03T07:23:37.416Z,10408
2019-05-03T07:24:50.360Z,10676
2019-05-03T07:26:02.445Z,10844
2019-05-03T07:27:12.801Z,10304
2019-05-03T07:28:24.770Z,9700
2019-05-03T07:29:36.577Z,9056
2019-05-03T07:30:47.891Z,9144
2019-05-03T07:31:59.649Z,8784
2019-05-03T07:33:09.707Z,7932
2019-05-03T07:34:20.471Z,7996
2019-05-03T07:35:32.483Z,8456
2019-05-03T07:36:44.619Z,8948
2019-05-03T07:37:55.393Z,9512
2019-05-03T07:39:05.423Z,11252
2019-05-03T07:40:17.215Z,11880
2019-05-03T07:41:31.289Z,11800
2019-05-03T07:42:44.489Z,11080
2019-05-03T07:43:55.038Z,9880
2019-05-03T07:45:07.299Z,9276
2019-05-03T07:46:19.432Z,9748
2019-05-03T07:47:31.819Z,10672
2019-05-03T07:48:42.672Z,11100
2019-05-03T07:49:54.658Z,10596
2019-05-03T07:51:05.569Z,9008
2019-05-03T07:52:17.233Z,8856
2019-05-03T07:53:27.677Z,9304
2019-05-03T07:54:39.595Z,9828
2019-05-03T07:55:50.267Z,10420
2019-05-03T07:57:02.087Z,11152
2019-05-03T07:58:14.830Z,10672
2019-05-03T07:59:25.185Z,10504
2019-05-03T08:00:36.806Z,10456
2019-05-03T08:01:48.029Z,10532
2019-05-03T08:02:59.569Z,10916
2019-05-03T08:04:10.051Z,12204
2019-05-03T08:05:20.118Z,12380
2019-05-03T08:06:34.447Z,11728
2019-05-03T08:07:46.857Z,12416
2019-05-03T08:08:57.029Z,12164
2019-05-03T08:10:07.915Z,12068
2019-05-03T08:11:19.351Z,11072
2019-05-03T08:12:29.571Z,10576
2019-05-03T08:13:40.161Z,10976
2019-05-03T08:14:52.305Z,10416
2019-05-03T08:16:02.851Z,11020
2019-05-03T08:17:15.214Z,11452
2019-05-03T08:18:25.774Z,11372
2019-05-03T08:19:38.158Z,10668
2019-05-03T08:20:49.957Z,11516
2019-05-03T08:22:01.267Z,11364
2019-05-03T08:23:30.233Z,11232
2019-05-03T08:24:42.500Z,11052
2019-05-03T08:25:58.183Z,11696
2019-05-03T08:27:09.947Z,10532
2019-05-03T08:28:21.683Z,10784
2019-05-03T08:29:32.314Z,11912
2019-05-03T08:30:44.493Z,13480
2019-05-03T08:31:54.648Z,12784
2019-05-03T08:33:05.498Z,12400
2019-05-03T08:34:17.638Z,12552
2019-05-03T08:35:29.144Z,13516
2019-05-03T08:36:39.771Z,12528
2019-05-03T08:37:50.098Z,13224
2019-05-03T08:39:05.435Z,14200
2019-05-03T08:40:15.628Z,14568
2019-05-03T08:41:27.146Z,15512
2019-05-03T08:42:37.609Z,14356
2019-05-03T08:43:49.421Z,15760
2019-05-03T08:44:59.923Z,14948
2019-05-03T08:46:12.125Z,12540
2019-05-03T08:47:24.694Z,11640
2019-05-03T08:48:35.406Z,12020
2019-05-03T08:49:47.433Z,15064
2019-05-03T08:50:57.909Z,14852
2019-05-03T08:52:10.122Z,14964
2019-05-03T08:53:25.316Z,15476
2019-05-03T08:54:37.242Z,16016
2019-05-03T08:55:47.440Z,16896
2019-05-03T08:56:58.202Z,13392
2019-05-03T08:58:09.827Z,15984
2019-05-03T08:59:35.680Z,14056
2019-05-03T09:00:47.521Z,16640
2019-05-03T09:02:03.425Z,16512
2019-05-03T09:03:27.391Z,15964
2019-05-03T09:04:48.817Z,15528
2019-05-03T09:06:01.300Z,15740
2019-05-03T09:07:14.744Z,16608
2019-05-03T09:08:27.227Z,17600
2019-05-03T09:09:39.592Z,18368
2019-05-03T09:10:50.869Z,18720
2019-05-03T09:12:04.570Z,18368
2019-05-03T09:13:17.164Z,13624
2019-05-03T09:14:46.288Z,16192
2019-05-03T09:16:00.218Z,17984
2019-05-03T09:17:12.242Z,19360
2019-05-03T09:18:25.766Z,14424
2019-05-03T09:19:37.151Z,12640
2019-05-03T09:20:47.349Z,12148
2019-05-03T09:21:59.631Z,12456
2019-05-03T09:23:10.255Z,13992
2019-05-03T09:24:24.425Z,20864
2019-05-03T09:25:35.456Z,21120
2019-05-03T09:26:47.420Z,19264
2019-05-03T09:27:57.705Z,12440
2019-05-03T09:29:08.031Z,11992
2019-05-03T09:30:19.143Z,12108
2019-05-03T09:31:29.573Z,18016
2019-05-03T09:32:39.834Z,16768
2019-05-03T09:33:50.049Z,19008
2019-05-03T09:35:02.378Z,19616
2019-05-03T09:36:14.654Z,20832
2019-05-03T09:37:25.051Z,22528
2019-05-03T09:38:35.113Z,24608
2019-05-03T09:39:49.366Z,25664
2019-05-03T09:40:59.487Z,21408
2019-05-03T09:42:11.868Z,20096
2019-05-03T09:43:25.031Z,17344
2019-05-03T09:44:37.361Z,17568
2019-05-03T09:45:48.189Z,17280
2019-05-03T09:46:59.594Z,15608
2019-05-03T09:48:10.604Z,14884
2019-05-03T09:49:25.297Z,14708
2019-05-03T09:50:35.965Z,15256
2019-05-03T09:51:46.615Z,16624
2019-05-03T09:52:57.895Z,23680
2019-05-03T09:54:10.095Z,20416
2019-05-03T09:55:22.471Z,16992
2019-05-03T09:56:34.588Z,12804
2019-05-03T09:57:44.475Z,20704
2019-05-03T09:58:55.730Z,19840
2019-05-03T10:00:09.660Z,20928
2019-05-03T10:01:20.007Z,21312
2019-05-03T10:02:31.921Z,21984
2019-05-03T10:03:45.158Z,22528
2019-05-03T10:04:57.753Z,23264
2019-05-03T10:06:07.773Z,25120
2019-05-03T10:07:20.046Z,24352
2019-05-03T10:08:32.706Z,25408
2019-05-03T10:09:44.927Z,17280
2019-05-03T10:10:54.832Z,29600
2019-05-03T10:12:05.457Z,32800
2019-05-03T10:13:29.636Z,28960
2019-05-03T10:14:39.636Z,27136
2019-05-03T10:15:49.908Z,23936
2019-05-03T10:17:01.729Z,18912
2019-05-03T10:18:18.066Z,18816
2019-05-03T10:19:47.569Z,19072
2019-05-03T10:20:58.708Z,19872
2019-05-03T10:22:10.467Z,27968
2019-05-03T10:23:22.146Z,24544
2019-05-03T10:24:32.210Z,20544
2019-05-03T10:25:45.543Z,18080
2019-05-03T10:26:57.606Z,18528
2019-05-03T10:28:08.220Z,19552
2019-05-03T10:29:20.064Z,18944
2019-05-03T10:30:30.076Z,21856
2019-05-03T10:31:40.273Z,20480
2019-05-03T10:32:52.502Z,20096
2019-05-03T10:34:02.479Z,21184
2019-05-03T10:35:15.095Z,23040
2019-05-03T10:36:27.464Z,23616
2019-05-03T10:37:38.285Z,27072
2019-05-03T10:38:50.636Z,41440
2019-05-03T10:40:05.733Z,40704
2019-05-03T10:41:17.734Z,38848
2019-05-03T10:42:29.001Z,22560
2019-05-03T10:43:40.061Z,25344
2019-05-03T10:44:52.448Z,37568
2019-05-03T10:46:04.867Z,22208
2019-05-03T10:47:17.032Z,20672
2019-05-03T10:48:27.523Z,29504
2019-05-03T10:49:37.694Z,20576
2019-05-03T10:50:50.648Z,24352
2019-05-03T10:52:01.875Z,41600
2019-05-03T10:53:15.219Z,43840
2019-05-03T10:54:25.111Z,44800
2019-05-03T10:55:35.738Z,28512
2019-05-03T10:56:47.747Z,27648
2019-05-03T10:57:59.030Z,40896
2019-05-03T10:59:10.649Z,32704
2019-05-03T11:00:59.142Z,19104
2019-05-03T11:02:09.123Z,17568
2019-05-03T11:03:19.337Z,16448
2019-05-03T11:04:29.347Z,15004
2019-05-03T11:05:39.378Z,14100
2019-05-03T11:06:50.607Z,13676
2019-05-03T11:08:02.602Z,13464
2019-05-03T11:09:15.214Z,13460
2019-05-03T11:10:25.314Z,13724
2019-05-03T11:11:37.584Z,14332
2019-05-03T11:12:47.314Z,15016
2019-05-03T11:13:57.288Z,15724
2019-05-03T11:15:07.242Z,16584
2019-05-03T11:16:17.408Z,17792
2019-05-03T11:17:28.112Z,18880
2019-05-03T11:18:39.383Z,20544
2019-05-03T11:19:50.258Z,22432
2019-05-03T11:21:02.275Z,24192
2019-05-03T11:22:14.562Z,49312
2019-05-03T11:23:25.130Z,23072
2019-05-03T11:24:37.234Z,16384
2019-05-03T11:25:47.797Z,12524
2019-05-03T11:27:00.100Z,11748
2019-05-03T11:28:12.021Z,11964
2019-05-03T11:29:24.724Z,12752
2019-05-03T11:30:35.553Z,13912
2019-05-03T11:31:46.982Z,15568
2019-05-03T11:32:58.074Z,18016
2019-05-03T11:34:08.034Z,20416
2019-05-03T11:35:19.832Z,23168
2019-05-03T11:36:31.737Z,27296
2019-05-03T11:37:42.483Z,56960
2019-05-03T11:38:52.757Z,59392
2019-05-03T11:40:05.063Z,55680
2019-05-03T11:41:19.132Z,53312
2019-05-03T11:42:44.611Z,53824
2019-05-03T11:43:54.733Z,54336
2019-05-03T11:45:04.444Z,50528
2019-05-03T11:46:14.158Z,51296
2019-05-03T11:47:27.914Z,53984
2019-05-03T11:48:39.676Z,56416
2019-05-03T11:49:50.259Z,29984
2019-05-03T11:51:01.998Z,51904
2019-05-03T11:52:15.779Z,26432
2019-05-03T11:53:27.662Z,23136
2019-05-03T11:54:38.146Z,23840
2019-05-03T11:55:51.133Z,22176
2019-05-03T11:57:04.997Z,22816
2019-05-03T11:58:14.968Z,24224
2019-05-03T11:59:25.378Z,24576
2019-05-03T12:00:35.954Z,24160
2019-05-03T12:01:47.346Z,22592
2019-05-03T12:03:00.444Z,21856
2019-05-03T12:04:12.564Z,21760
2019-05-03T12:05:24.457Z,21472
2019-05-03T12:06:36.615Z,22176
2019-05-03T12:07:48.027Z,21632
2019-05-03T12:08:59.937Z,24512
2019-05-03T12:10:51.461Z,29376
2019-05-03T12:12:09.479Z,30912
2019-05-03T12:13:20.427Z,30272
2019-05-03T12:14:32.310Z,51328
2019-05-03T12:15:44.520Z,80800
2019-05-03T12:17:34.828Z,30816
2019-05-03T12:19:13.868Z,29280
2019-05-03T12:20:40.859Z,29664
2019-05-03T12:21:57.197Z,31072
2019-05-03T12:23:12.826Z,46048
2019-05-03T12:24:29.644Z,36096
2019-05-03T12:25:48.457Z,39232
2019-05-03T12:27:00.636Z,42368
2019-05-03T12:28:15.147Z,71584
2019-05-03T12:29:26.940Z,83200
2019-05-03T12:30:38.012Z,80352
2019-05-03T12:31:50.429Z,74144
2019-05-03T12:33:02.188Z,46336
2019-05-03T12:34:15.615Z,46592
2019-05-03T12:35:27.133Z,34752
2019-05-03T12:36:43.546Z,34336
2019-05-03T12:37:55.073Z,18400
2019-05-03T12:39:23.086Z,15764
2019-05-03T12:40:39.629Z,14984
2019-05-03T12:41:50.646Z,15132
2019-05-03T12:43:02.709Z,14472
2019-05-03T12:44:15.249Z,12500
2019-05-03T12:45:27.221Z,10732
2019-05-03T12:46:37.823Z,10040
2019-05-03T12:47:50.019Z,10184
2019-05-03T12:48:59.241Z,10776
2019-05-03T12:50:10.185Z,11520
2019-05-03T12:51:22.479Z,11968
2019-05-03T12:52:49.222Z,12008
2019-05-03T12:54:00.046Z,12328
2019-05-03T12:55:12.435Z,13492
2019-05-03T12:56:38.254Z,15924
2019-05-03T12:57:48.279Z,17568
2019-05-03T12:58:59.773Z,19008
2019-05-03T13:00:12.144Z,27552
2019-05-03T13:01:24.947Z,23904
2019-05-03T13:02:49.451Z,25152
2019-05-03T13:04:00.244Z,27072
2019-05-03T13:05:11.998Z,34144
2019-05-03T13:06:22.699Z,70336
2019-05-03T13:07:34.758Z,76192
2019-05-03T13:08:45.548Z,71200
2019-05-03T13:09:56.950Z,72512
2019-05-03T13:11:07.745Z,77920
2019-05-03T13:12:19.530Z,79392
2019-05-03T13:13:29.853Z,75808
2019-05-03T13:14:41.797Z,75424
2019-05-03T13:15:54.898Z,76000
2019-05-03T13:17:07.124Z,74336
2019-05-03T13:18:20.497Z,68288
2019-05-03T13:19:34.901Z,69088
2019-05-03T13:20:45.395Z,64416
2019-05-03T13:21:55.695Z,36768
2019-05-03T13:23:07.936Z,28992
2019-05-03T13:24:30.884Z,21600
2019-05-03T13:25:44.681Z,17344
2019-05-03T13:26:54.685Z,12732
2019-05-03T13:28:05.455Z,10288
2019-05-03T13:29:17.595Z,8976
2019-05-03T13:30:29.813Z,8268
2019-05-03T13:31:54.438Z,7736
2019-05-03T13:33:10.615Z,7160
2019-05-03T13:34:24.784Z,6692
2019-05-03T13:35:35.222Z,6348
2019-05-03T13:36:45.735Z,6236
2019-05-03T13:37:55.686Z,6332
2019-05-03T13:39:20.857Z,6576
2019-05-03T13:40:35.842Z,6892
2019-05-03T13:41:47.887Z,7308
2019-05-03T13:43:10.844Z,7936
2019-05-03T13:44:24.476Z,8640
2019-05-03T13:45:35.502Z,9512
2019-05-03T13:46:47.047Z,10644
2019-05-03T13:47:57.758Z,11924
2019-05-03T13:49:08.881Z,13276
2019-05-03T13:50:20.042Z,14716
2019-05-03T13:51:32.344Z,15664
2019-05-03T13:52:45.111Z,15588
2019-05-03T13:53:57.395Z,14884
2019-05-03T13:55:07.895Z,14572
2019-05-03T13:56:20.009Z,14956
2019-05-03T13:57:32.023Z,16420
2019-05-03T13:58:44.538Z,19072
2019-05-03T13:59:55.433Z,22656
2019-05-03T14:01:07.611Z,28448
2019-05-03T14:02:24.086Z,42720
2019-05-03T14:03:35.151Z,42720
2019-05-03T14:04:58.116Z,65696
2019-05-03T14:06:12.860Z,48960
2019-05-03T14:07:22.876Z,48160
2019-05-03T14:08:34.841Z,51904
2019-05-03T14:09:45.295Z,40992
2019-05-03T14:10:55.642Z,44128
2019-05-03T14:12:09.477Z,42720
2019-05-03T14:13:19.427Z,54880
2019-05-03T14:14:30.715Z,46560
2019-05-03T14:15:42.055Z,47712
2019-05-03T14:16:54.702Z,37888
2019-05-03T14:18:05.906Z,62880
2019-05-03T14:19:17.095Z,83520
2019-05-03T14:20:28.677Z,77728
2019-05-03T14:21:39.419Z,69664
2019-05-03T14:22:49.126Z,68640
2019-05-03T14:23:59.101Z,68608
2019-05-03T14:25:09.180Z,58976
2019-05-03T14:26:19.908Z,60864
2019-05-03T14:27:34.712Z,63104
2019-05-03T14:28:45.172Z,20640
2019-05-03T14:29:57.233Z,20224
2019-05-03T14:31:07.648Z,50656
2019-05-03T14:32:31.469Z,20800
2019-05-03T14:33:44.823Z,16736
2019-05-03T14:34:57.143Z,13276
2019-05-03T14:36:07.749Z,11688
2019-05-03T14:37:17.709Z,10816
2019-05-03T14:38:30.171Z,10108
2019-05-03T14:39:40.161Z,9704
2019-05-03T14:40:54.881Z,8964
2019-05-03T14:42:07.124Z,8232
2019-05-03T14:43:17.869Z,7532
2019-05-03T14:44:30.004Z,6908
2019-05-03T14:45:41.917Z,6384
2019-05-03T14:46:56.602Z,5984
2019-05-03T14:48:11.068Z,5624
2019-05-03T14:49:22.915Z,5420
2019-05-03T14:50:34.997Z,5484
2019-05-03T14:51:45.531Z,5672
2019-05-03T14:52:59.233Z,5844
2019-05-03T14:54:10.303Z,5948
2019-05-03T14:55:22.047Z,6040
2019-05-03T14:56:34.687Z,6220
2019-05-03T14:57:46.896Z,6548
2019-05-03T14:58:58.473Z,6916
2019-05-03T15:00:08.417Z,7264
2019-05-03T15:01:20.300Z,7616
2019-05-03T15:02:52.455Z,8036
2019-05-03T15:04:05.892Z,8352
2019-05-03T15:05:17.393Z,8732
2019-05-03T15:06:29.470Z,9208
2019-05-03T15:07:39.987Z,9556
2019-05-03T15:08:49.967Z,9680
2019-05-03T15:10:02.339Z,9600
2019-05-03T15:11:14.879Z,9320
2019-05-03T15:12:25.282Z,9020
2019-05-03T15:13:37.372Z,8872
2019-05-03T15:14:47.625Z,8888
2019-05-03T15:15:59.592Z,8944
2019-05-03T15:17:10.161Z,9032
2019-05-03T15:18:21.772Z,9232
2019-05-03T15:19:34.868Z,9376
2019-05-03T15:20:47.792Z,9368
2019-05-03T15:21:59.482Z,9280
2019-05-03T15:23:10.177Z,9180
2019-05-03T15:24:22.214Z,9116
2019-05-03T15:25:34.535Z,9068
2019-05-03T15:26:44.841Z,9068
2019-05-03T15:27:57.747Z,9156
2019-05-03T15:29:09.615Z,9304
2019-05-03T15:30:20.389Z,9492
2019-05-03T15:31:31.801Z,9652
2019-05-03T15:33:00.657Z,9712
2019-05-03T15:34:12.704Z,9512
2019-05-03T15:35:22.930Z,9132
2019-05-03T15:36:33.572Z,8872
2019-05-03T15:37:45.269Z,8852
2019-05-03T15:38:55.281Z,9044
2019-05-03T15:40:08.194Z,9284
2019-05-03T15:41:19.535Z,9380
2019-05-03T15:42:29.238Z,9360
2019-05-03T15:43:39.429Z,9412
2019-05-03T15:44:49.834Z,9676
2019-05-03T15:46:01.616Z,9620
2019-05-03T15:47:19.304Z,8848
2019-05-03T15:48:29.457Z,7728
2019-05-03T15:49:40.456Z,6528
2019-05-03T15:50:51.847Z,5660
2019-05-03T15:52:04.655Z,5088
2019-05-03T15:53:15.110Z,4740
2019-05-03T15:54:27.001Z,4572
2019-05-03T15:55:36.704Z,4504
2019-05-03T15:56:47.347Z,4492
2019-05-03T15:57:57.694Z,4652
2019-05-03T15:59:09.030Z,4964
2019-05-03T16:00:19.899Z,5392
2019-05-03T16:01:32.173Z,5788
2019-05-03T16:02:42.780Z,5988
2019-05-03T16:03:52.237Z,5940
2019-05-03T16:05:07.027Z,5796
2019-05-03T16:06:18.022Z,5688
2019-05-03T16:07:29.862Z,5688
2019-05-03T16:08:39.799Z,5788
2019-05-03T16:09:51.693Z,6000
2019-05-03T16:11:02.761Z,6324
2019-05-03T16:12:14.506Z,6724
2019-05-03T16:13:25.167Z,7196
2019-05-03T16:14:35.139Z,7880